• Join FlightAware (Why Join?)
  • Login
  • US Flag 
01:15AM EDT


 

Airport Tracker/Info


-or-


 

Live Flight TrackerFlight Track Log ✈ DAL1237 ✈ 18-Nov-2013 ✈ KBOS - KATL

Flight Track Log - Related Links

Times and Time Zones

All times are in EST time to prevent confusion due to time zone crossing. See the DAL1237 flight status page for this flight to view local times or setup timezone preferences in your user account.

Time Position Orientation Groundspeed Altitude Reporting Facility
EST Latitude Longitude Course Direction KTS MPH feet Rate Location/Type
06:22AM 42.3500 -71.0167 270° West 134 154 1,200  Level KA90
06:23AM 42.3167 -70.9833 144° Southeast 222 255 2,200 1,920 Climbing KA90
06:24AM 42.1965 -70.9026 240° Southwest  Level FlightAware Approximate
06:24AM 42.3328 -70.8178 82° East 320 368 6,200  Level Boston Center
06:25AM 42.1898 -71.0437 276° West  Level FlightAware Approximate
06:25AM 42.2981 -70.7278 118° Southeast 285 328 8,800  Level Boston Center
06:26AM 42.2000 -71.1893 270° West  Level FlightAware Approximate
06:26AM 42.2506 -70.7786 218° Southwest 261 300 11,400  Level Boston Center
06:27AM 42.2001 -71.3357 270° West  Level FlightAware Approximate
06:27AM 42.2250 -70.8733 250° West 255 293 14,100  Level Boston Center
06:28AM 42.2247 -70.9772 270° West 275 316 16,300 2,220 Climbing Boston Center
06:29AM 42.2244 -71.0806 270° West 276 318 18,800 1,620 Climbing Boston Center
06:30AM 42.2258 -71.1806 271° West 282 325 19,600 1,200 Climbing Boston Center
06:31AM 42.2233 -71.3017 268° West 315 362 21,200 1,560 Climbing Boston Center
06:32AM 42.2233 -71.4253 270° West 326 375 22,800 1,740 Climbing Boston Center
06:33AM 42.2214 -71.5483 269° West 329 379 24,800 1,560 Climbing Boston Center
06:34AM 42.2200 -71.6731 269° West 330 380 26,000 840 Climbing Boston Center
06:35AM 42.2172 -71.8056 268° West 346 398 26,600 540 Climbing Boston Center
06:36AM 42.2083 -71.9494 265° West 373 429 27,200 600 Climbing Boston Center
06:37AM 42.2000 -72.0964 266° West 388 447 27,900 1,020 Climbing Boston Center
06:38AM 42.1892 -72.2783 265° West 402 463 29,300 1,320 Climbing Boston Center
06:39AM 42.1797 -72.4278 265° West 400 460 30,600 1,020 Climbing Boston Center
06:41AM 42.1353 -72.5611 246° West 404 465 31,400 720 Climbing Boston Center
06:41AM 42.0642 -72.6764 230° Southwest 401 461 32,100 780 Climbing Boston Center
06:43AM 41.9919 -72.7928 230° Southwest 403 464 33,100 900 Climbing Boston Center
06:44AM 41.9203 -72.9072 230° Southwest 401 461 34,000 420 Climbing Boston Center
06:45AM 41.8506 -73.0172 230° Southwest 393 452 34,000  Level Boston Center
06:46AM 41.7831 -73.1242 230° Southwest 381 438 34,000  Level Boston Center
06:47AM 41.7161 -73.2294 230° Southwest 376 433 34,000  Level Boston Center
06:48AM 41.6550 -73.3367 233° Southwest 368 423 34,000  Level Boston Center
06:49AM 41.6497 -73.4764 267° West 378 435 34,000  Level Boston Center
06:50AM 41.6514 -73.6194 271° West 384 442 34,000  Level Boston Center
06:51AM 41.6553 -73.7692 272° West 388 447 34,000 -60 Level Boston Center
06:52AM 41.6353 -73.9111 259° West 402 463 33,900  Descending Boston Center
06:53AM 41.5531 -74.0089 222° Southwest 398 458 34,000  Climbing Boston Center
06:54AM 41.4722 -74.1047 222° Southwest 393 452 34,000  Level Boston Center
06:55AM 41.3911 -74.2022 222° Southwest 394 453 34,000 -480 Level Boston Center
06:56AM 41.3083 -74.2983 221° Southwest 395 455 33,100 -960 Descending Boston Center
06:57AM 41.2239 -74.3994 222° Southwest 391 450 32,100 -600 Descending Boston Center
06:58AM 41.1433 -74.4944 222° Southwest 388 447 31,900 -120 Descending Boston Center
06:59AM 41.0617 -74.5906 222° Southwest 393 452 31,900  Level Boston Center
07:00AM 40.9783 -74.6867 221° Southwest 397 457 32,000  Climbing Boston Center
07:01AM 40.8958 -74.7839 222° Southwest 400 460 31,900 -60 Descending Boston Center
07:02AM 40.7950 -74.9008 221° Southwest 403 464 31,900  Level Boston Center
07:03AM 40.7117 -74.9989 222° Southwest 404 465 31,900  Level Boston Center
07:04AM 40.6278 -75.0958 221° Southwest 403 464 31,900  Level Boston Center
07:05AM 40.5428 -75.1925 221° Southwest 404 465 32,000  Climbing Boston Center
07:06AM 40.4589 -75.2889 221° Southwest 404 465 31,900 -60 Descending Boston Center
07:07AM 40.3450 -75.4222 222° Southwest 406 467 31,900  Level New York Center
07:08AM 40.2639 -75.5203 223° Southwest 406 467 31,900  Level New York Center
07:09AM 40.1928 -75.6294 230° Southwest 406 467 31,900  Level New York Center
07:10AM 40.1339 -75.7419 236° Southwest 395 455 31,900  Level New York Center
07:11AM 40.0911 -75.8639 245° Southwest 372 428 32,000  Climbing New York Center
07:12AM 40.0500 -75.9936 248° West 377 434 32,000  Level New York Center
07:13AM 39.9989 -76.1092 240° Southwest 377 434 32,000 -60 Level New York Center
07:15AM 39.8739 -76.3078 231° Southwest 376 433 31,900 -60 Descending Washington Center
07:16AM 39.8150 -76.4208 236° Southwest 376 433 31,900  Level Washington Center
07:17AM 39.7494 -76.5306 232° Southwest 386 444 32,000  Climbing Washington Center
07:18AM 39.6842 -76.6431 233° Southwest 392 451 32,000  Level Washington Center
07:19AM 39.6228 -76.7528 234° Southwest 387 445 32,000  Level Washington Center
07:20AM 39.5589 -76.8647 234° Southwest 387 445 32,000  Level Washington Center
07:21AM 39.4953 -76.9711 232° Southwest 387 445 32,000  Level Washington Center
07:22AM 39.4150 -77.0636 222° Southwest 387 445 32,000  Level Washington Center
07:23AM 39.3264 -77.1583 220° Southwest 395 455 32,000  Level Washington Center
07:24AM 39.2397 -77.2450 218° Southwest 406 467 32,000  Level Washington Center
07:25AM 39.1550 -77.3369 220° Southwest 406 467 32,000  Level Washington Center
07:26AM 39.0683 -77.4256 218° Southwest 406 467 32,000  Level Washington Center
07:27AM 38.9814 -77.5142 218° Southwest 406 467 32,000  Level Washington Center
07:28AM 38.8967 -77.6053 220° Southwest 399 459 32,000  Level Washington Center
07:29AM 38.8286 -77.6756 219° Southwest 399 459 32,000  Level Washington Center
07:30AM 38.7267 -77.7764 218° Southwest 408 470 32,000  Level Washington Center
07:31AM 38.6417 -77.8694 221° Southwest 408 470 32,000  Level Washington Center
07:32AM 38.5750 -77.9764 231° Southwest 402 463 32,000  Level Washington Center
07:33AM 38.5103 -78.0858 233° Southwest 397 457 32,000  Level Washington Center
07:34AM 38.4453 -78.1975 233° Southwest 392 451 32,000  Level Washington Center
07:35AM 38.3825 -78.3067 234° Southwest 392 451 32,000  Level Washington Center
07:36AM 38.3044 -78.4361 232° Southwest 392 451 32,000  Level Washington Center
07:37AM 38.2389 -78.5578 236° Southwest 386 444 32,000  Level Washington Center
07:38AM 38.1714 -78.6661 232° Southwest 386 444 32,000  Level Washington Center
07:39AM 38.1061 -78.7742 233° Southwest 386 444 32,100  Climbing Washington Center
07:40AM 38.0383 -78.8847 232° Southwest 391 450 32,000 -60 Descending Washington Center
07:41AM 37.9814 -78.9825 234° Southwest 391 450 32,000  Level Washington Center
07:42AM 37.9158 -79.0900 232° Southwest 391 450 32,000  Level Washington Center
07:43AM 37.8439 -79.1919 228° Southwest 391 450 32,000  Level Washington Center
07:44AM 37.7719 -79.2936 228° Southwest 396 456 32,000  Level Washington Center
07:45AM 37.6939 -79.3919 225° Southwest 401 461 32,000  Level Washington Center
07:46AM 37.6150 -79.5061 229° Southwest 401 461 32,000  Level Washington Center
07:47AM 37.5494 -79.5969 228° Southwest 401 461 32,000  Level Washington Center
07:48AM 37.4664 -79.7103 227° Southwest 401 461 32,000  Level Washington Center
07:49AM 37.3983 -79.8061 228° Southwest 406 467 32,000  Level Washington Center
07:51AM 37.2453 -80.0083 226° Southwest 384 442 32,000  Level Atlanta Center
07:52AM 37.1775 -80.1003 227° Southwest 393 452 32,000  Level Atlanta Center
07:53AM 37.1014 -80.2031 227° Southwest 398 458 32,000  Level Atlanta Center
07:54AM 37.0233 -80.3056 226° Southwest 403 464 32,000  Level Atlanta Center
07:55AM 36.9472 -80.4106 228° Southwest 403 464 32,000  Level Atlanta Center
07:56AM 36.8608 -80.5208 226° Southwest 408 470 32,000  Level Atlanta Center
07:57AM 36.7844 -80.6228 227° Southwest 403 464 32,000  Level Atlanta Center
07:58AM 36.7081 -80.7269 228° Southwest 408 470 32,000  Level Atlanta Center
07:59AM 36.6314 -80.8283 227° Southwest 408 470 32,000  Level Atlanta Center
08:00AM 36.5608 -80.9217 227° Southwest 408 470 32,000  Level Atlanta Center
08:01AM 36.4783 -81.0361 228° Southwest 408 470 32,000  Level Atlanta Center
08:02AM 36.3994 -81.1394 227° Southwest 408 470 32,000  Level Atlanta Center
08:03AM 36.3225 -81.2375 226° Southwest 408 470 32,000  Level Atlanta Center
08:04AM 36.2456 -81.3408 227° Southwest 408 470 32,000  Level Atlanta Center
08:05AM 36.1664 -81.4411 226° Southwest 408 470 32,000  Level Atlanta Center
08:06AM 36.0872 -81.5414 226° Southwest 408 470 32,000  Level Atlanta Center
08:07AM 36.0078 -81.6439 226° Southwest 408 470 32,000  Level Atlanta Center
08:08AM 35.9306 -81.7461 227° Southwest 408 470 32,000  Level Atlanta Center
08:09AM 35.8508 -81.8458 225° Southwest 408 470 32,000  Level Atlanta Center
08:10AM 35.7692 -81.9478 225° Southwest 408 470 32,000  Level Atlanta Center
08:11AM 35.6897 -82.0519 227° Southwest 408 470 32,000  Level Atlanta Center
08:12AM 35.6100 -82.1536 226° Southwest 413 475 32,000  Level Atlanta Center
08:13AM 35.5383 -82.2444 226° Southwest 413 475 32,000  Level Atlanta Center
08:14AM 35.4481 -82.3586 226° Southwest 413 475 32,000  Level Atlanta Center
08:15AM 35.3761 -82.4494 226° Southwest 413 475 32,000  Level Atlanta Center
08:16AM 35.2961 -82.5528 227° Southwest 413 475 32,000  Level Atlanta Center
08:17AM 35.2078 -82.6736 228° Southwest 417 480 32,000 -60 Level Atlanta Center
08:18AM 35.1256 -82.7692 224° Southwest 417 480 31,900 -600 Descending Atlanta Center
08:19AM 35.0428 -82.8617 222° Southwest 412 474 30,900 -960 Descending Atlanta Center
08:20AM 34.9581 -82.9542 222° Southwest 412 474 30,000 -1,020 Descending Atlanta Center
08:21AM 34.8733 -83.0386 219° Southwest 407 468 28,900 -1,200 Descending Atlanta Center
08:22AM 34.7864 -83.1233 219° Southwest 407 468 27,700 -1,080 Descending Atlanta Center
08:23AM 34.7242 -83.1897 221° Southwest 396 456 26,800 -2,400 Descending Atlanta Center
08:24AM 34.6289 -83.2864 220° Southwest 375 432 23,000 -3,120 Descending Atlanta Center
08:25AM 34.5561 -83.3603 220° Southwest 361 415 20,600 -1,980 Descending Atlanta Center
08:26AM 34.4856 -83.4364 222° Southwest 356 410 19,100 -1,440 Descending Atlanta Center
08:27AM 34.4131 -83.5100 220° Southwest 350 403 17,800 -1,200 Descending Atlanta Center
08:28AM 34.3506 -83.5708 219° Southwest 344 396 16,700 -1,200 Descending Atlanta Center
08:29AM 34.2842 -83.6417 221° Southwest 331 381 15,400 -1,320 Descending Atlanta Center
08:30AM 34.2175 -83.7097 220° Southwest 326 375 14,100 -1,320 Descending Atlanta Center
08:31AM 34.1508 -83.7828 222° Southwest 326 375 12,800 -1,080 Descending Atlanta Center
08:32AM 34.0758 -83.8533 218° Southwest 337 388 12,000 -840 Descending Atlanta Center
08:33AM 34.0092 -83.9286 223° Southwest 337 388 11,200 -900 Descending Atlanta Center
08:34AM 33.9217 -83.9711 202° Southwest 309 356 10,200 -780 Descending Atlanta Center
08:35AM 33.8339 -83.9639 176° South 309 356 9,700 -1,080 Descending Atlanta Center
08:36AM 33.7567 -83.9614 178° South 296 341 8,100 -900 Descending Atlanta Center
08:38AM 33.6333 -84.0333 206° Southwest 223 257 6,800 -720 Descending Atlanta TRACON
08:39AM 33.6333 -84.0833 270° West 204 235 5,900 -1,020 Descending Atlanta TRACON
08:40AM 33.6333 -84.1500 270° West 194 223 4,900 -780 Descending Atlanta TRACON
08:41AM 33.6333 -84.2167 270° West 170 196 4,400 -780 Descending Atlanta TRACON
08:42AM 33.6333 -84.2667 270° West 169 194 3,400 -960 Descending Atlanta TRACON
08:43AM 33.6333 -84.3167 270° West 175 201 2,500 -900 Descending Atlanta TRACON
08:44AM 33.6333 -84.3667 270° West 145 167 1,800 -660 Descending Atlanta TRACON
08:45AM 33.6333 -84.4167 270° West 144 166 1,300 -540 Descending Atlanta TRACON